Date,TemperatureHighF,TemperatureAvgF,TemperatureLowF,DewpointHighF,DewpointAvgF,DewpointLowF,HumidityHigh,HumidityAvg,HumidityLow,PressureMaxIn,PressureMinIn,WindSpeedMaxMPH,WindSpeedAvgMPH,GustSpeedMaxMPH,PrecipitationSumIn
2013-1-1,42,32,27,32,26,21,89,79,48,30.35,30.22,3,0,6,0.01
2013-1-2,40,33,29,29,25,21,86,74,60,30.25,30.18,3,0,5,0.00
2013-1-3,42,34,32,29,24,20,71,66,53,30.31,30.19,3,1,5,0.00
2013-1-4,41,34,32,26,21,17,65,58,43,30.39,30.30,3,2,4,0.00
2013-1-5,45,36,34,30,23,19,68,59,49,30.40,30.27,2,1,4,0.00
2013-1-6,38,34,31,31,27,20,96,77,54,30.27,30.04,3,0,10,0.00
2013-1-7,52,41,29,30,19,7,96,49,17,30.16,30.01,17,4,30,0.10
2013-1-8,49,42,37,35,30,21,71,63,47,30.24,30.08,4,3,7,0.00
2013-1-9,59,47,42,38,32,27,69,58,33,30.23,29.98,5,2,10,0.00
2013-1-10,42,33,26,36,28,18,96,84,55,30.07,29.84,8,1,20,0.21
2013-1-11,33,27,23,22,16,9,82,65,46,30.21,30.06,6,1,14,0.00
2013-1-12,34,24,20,20,15,12,84,69,42,30.26,30.12,6,1,10,0.00
2013-1-13,35,25,20,18,12,8,74,60,34,30.27,30.17,6,1,8,0.01
2013-1-14,40,29,17,12,3,-14,75,40,11,30.40,30.24,15,3,28,0.00
2013-1-15,43,31,24,25,16,2,73,55,30,30.51,30.36,16,2,16,0.02
2013-1-16,46,37,33,31,28,25,75,69,51,30.48,30.30,4,2,5,0.04
2013-1-17,48,40,37,31,26,21,65,57,41,30.34,30.25,4,3,5,0.00
2013-1-18,50,42,39,32,25,20,59,51,40,30.29,30.21,4,3,5,0.00
2013-1-19,51,42,39,31,22,17,54,45,36,30.32,30.23,4,3,5,0.00
2013-1-20,54,44,40,30,21,14,49,41,33,30.27,30.15,4,3,5,0.00
2013-1-21,57,44,40,28,20,13,46,38,23,30.23,30.15,4,3,5,0.00
2013-1-22,62,48,41,31,22,11,48,36,17,30.24,30.14,4,2,7,0.00
2013-1-23,64,56,50,42,33,28,74,44,29,30.18,30.07,8,2,17,0.03
2013-1-24,52,47,43,50,46,37,98,93,69,30.19,30.05,4,1,13,0.68
2013-1-25,53,48,45,51,46,42,97,95,66,30.20,29.97,7,1,13,0.61
2013-1-26,52,47,44,49,46,44,98,97,89,29.98,29.90,4,0,8,0.12
2013-1-27,44,39,32,44,37,30,98,91,71,30.00,29.93,7,0,13,0.03
2013-1-28,37,30,27,29,25,18,96,81,50,30.26,30.00,11,1,16,0.08
2013-1-29,55,35,27,36,28,22,93,79,33,30.32,30.23,9,1,20,0.06
2013-1-30,53,41,36,39,34,29,85,76,47,30.43,30.31,3,1,12,0.00
2013-1-31,57,44,39,40,35,32,79,72,44,30.34,30.22,3,0,4,0.00
2013-2-1,61,47,41,40,34,30,72,61,33,30.27,30.21,4,1,10,0.00
2013-2-2,62,52,45,44,36,31,77,55,32,30.27,30.17,6,1,9,0.00
2013-2-3,56,46,42,47,42,37,96,85,63,30.17,30.01,5,1,8,0.06
2013-2-4,59,46,41,39,36,33,84,69,40,30.16,30.04,4,2,10,0.00
2013-2-5,58,45,41,37,31,24,74,60,35,30.11,30.00,8,2,9,0.00
2013-2-6,54,41,30,42,32,26,91,72,50,30.15,29.96,6,1,9,0.00
2013-2-7,56,42,34,41,29,19,90,60,36,30.17,29.96,6,2,13,0.00
2013-2-8,36,30,24,31,28,23,96,93,78,29.97,29.88,8,1,14,0.00
2013-2-9,24,23,22,24,22,20,96,95,94,30.11,29.95,0,0,0,0.00